sensor_id;sensor_type;location;lat;lon;timestamp;P1;durP1;ratioP1;P2;durP2;ratioP2
69047;SDS011;56119;50.118;8.642;2023-11-19T00:00:25;14.63;;;11.05;;
69047;SDS011;56119;50.118;8.642;2023-11-19T00:02:51;14.02;;;10.27;;
69047;SDS011;56119;50.118;8.642;2023-11-19T00:05:21;14.68;;;11.82;;
69047;SDS011;56119;50.118;8.642;2023-11-19T00:07:47;17.23;;;13.57;;
69047;SDS011;56119;50.118;8.642;2023-11-19T00:10:13;16.92;;;12.68;;
69047;SDS011;56119;50.118;8.642;2023-11-19T00:12:44;19.42;;;12.43;;
69047;SDS011;56119;50.118;8.642;2023-11-19T00:15:10;17.10;;;13.40;;
69047;SDS011;56119;50.118;8.642;2023-11-19T00:17:39;17.92;;;14.50;;
69047;SDS011;56119;50.118;8.642;2023-11-19T00:20:14;17.20;;;13.48;;
69047;SDS011;56119;50.118;8.642;2023-11-19T00:22:43;17.38;;;13.63;;
69047;SDS011;56119;50.118;8.642;2023-11-19T00:25:13;16.00;;;13.23;;
69047;SDS011;56119;50.118;8.642;2023-11-19T00:27:39;17.65;;;13.00;;
69047;SDS011;56119;50.118;8.642;2023-11-19T00:30:05;19.75;;;14.98;;
69047;SDS011;56119;50.118;8.642;2023-11-19T00:32:32;14.88;;;11.05;;
69047;SDS011;56119;50.118;8.642;2023-11-19T00:34:58;18.40;;;13.88;;
69047;SDS011;56119;50.118;8.642;2023-11-19T00:37:24;16.00;;;12.80;;
69047;SDS011;56119;50.118;8.642;2023-11-19T00:39:50;17.25;;;13.43;;
69047;SDS011;56119;50.118;8.642;2023-11-19T00:42:17;19.05;;;14.35;;
69047;SDS011;56119;50.118;8.642;2023-11-19T00:44:43;16.92;;;13.02;;
69047;SDS011;56119;50.118;8.642;2023-11-19T00:47:09;20.33;;;14.18;;
69047;SDS011;56119;50.118;8.642;2023-11-19T00:49:35;19.70;;;13.93;;
69047;SDS011;56119;50.118;8.642;2023-11-19T00:52:00;18.08;;;13.82;;
69047;SDS011;56119;50.118;8.642;2023-11-19T00:54:27;14.85;;;12.10;;
69047;SDS011;56119;50.118;8.642;2023-11-19T00:56:53;16.77;;;13.77;;
69047;SDS011;56119;50.118;8.642;2023-11-19T00:59:19;20.08;;;14.25;;
69047;SDS011;56119;50.118;8.642;2023-11-19T01:01:45;17.42;;;13.80;;
69047;SDS011;56119;50.118;8.642;2023-11-19T01:04:13;16.08;;;12.73;;
69047;SDS011;56119;50.118;8.642;2023-11-19T01:06:39;20.55;;;14.13;;
69047;SDS011;56119;50.118;8.642;2023-11-19T01:09:05;20.98;;;14.38;;
69047;SDS011;56119;50.118;8.642;2023-11-19T01:11:32;15.93;;;12.93;;
69047;SDS011;56119;50.118;8.642;2023-11-19T01:13:58;16.73;;;12.65;;
69047;SDS011;56119;50.118;8.642;2023-11-19T01:16:24;20.85;;;14.65;;
69047;SDS011;56119;50.118;8.642;2023-11-19T01:18:51;20.02;;;13.35;;
69047;SDS011;56119;50.118;8.642;2023-11-19T01:21:17;16.75;;;13.05;;
69047;SDS011;56119;50.118;8.642;2023-11-19T01:23:43;17.25;;;13.07;;
69047;SDS011;56119;50.118;8.642;2023-11-19T01:26:10;15.57;;;12.50;;
69047;SDS011;56119;50.118;8.642;2023-11-19T01:28:37;17.55;;;12.05;;
69047;SDS011;56119;50.118;8.642;2023-11-19T01:31:04;14.77;;;12.55;;
69047;SDS011;56119;50.118;8.642;2023-11-19T01:33:30;14.43;;;11.93;;
69047;SDS011;56119;50.118;8.642;2023-11-19T01:35:56;17.27;;;13.00;;
69047;SDS011;56119;50.118;8.642;2023-11-19T01:38:23;19.50;;;14.35;;
69047;SDS011;56119;50.118;8.642;2023-11-19T01:40:49;16.85;;;13.43;;
69047;SDS011;56119;50.118;8.642;2023-11-19T01:43:34;16.67;;;11.88;;
69047;SDS011;56119;50.118;8.642;2023-11-19T01:46:01;15.73;;;12.00;;
69047;SDS011;56119;50.118;8.642;2023-11-19T01:48:28;15.40;;;12.32;;
69047;SDS011;56119;50.118;8.642;2023-11-19T01:50:54;16.90;;;12.38;;
69047;SDS011;56119;50.118;8.642;2023-11-19T01:53:21;16.98;;;12.25;;
69047;SDS011;56119;50.118;8.642;2023-11-19T01:55:47;15.10;;;11.45;;
69047;SDS011;56119;50.118;8.642;2023-11-19T01:58:13;14.77;;;12.55;;
69047;SDS011;56119;50.118;8.642;2023-11-19T02:00:39;11.38;;;9.68;;
69047;SDS011;56119;50.118;8.642;2023-11-19T02:03:06;16.10;;;12.85;;
69047;SDS011;56119;50.118;8.642;2023-11-19T02:05:33;14.38;;;11.45;;
69047;SDS011;56119;50.118;8.642;2023-11-19T02:07:59;14.75;;;11.82;;
69047;SDS011;56119;50.118;8.642;2023-11-19T02:10:26;15.25;;;11.15;;
69047;SDS011;56119;50.118;8.642;2023-11-19T02:12:52;15.05;;;12.57;;
69047;SDS011;56119;50.118;8.642;2023-11-19T02:15:18;13.65;;;11.00;;
69047;SDS011;56119;50.118;8.642;2023-11-19T02:17:44;12.23;;;10.48;;
69047;SDS011;56119;50.118;8.642;2023-11-19T02:20:10;12.55;;;10.70;;
69047;SDS011;56119;50.118;8.642;2023-11-19T02:22:40;13.63;;;9.73;;
69047;SDS011;56119;50.118;8.642;2023-11-19T02:25:07;12.70;;;10.27;;
69047;SDS011;56119;50.118;8.642;2023-11-19T02:30:05;12.55;;;9.85;;
69047;SDS011;56119;50.118;8.642;2023-11-19T02:32:33;11.88;;;9.40;;
69047;SDS011;56119;50.118;8.642;2023-11-19T02:35:00;14.07;;;11.35;;
69047;SDS011;56119;50.118;8.642;2023-11-19T02:37:26;12.70;;;10.25;;
69047;SDS011;56119;50.118;8.642;2023-11-19T02:39:53;12.88;;;10.70;;
69047;SDS011;56119;50.118;8.642;2023-11-19T02:42:19;12.10;;;9.93;;
69047;SDS011;56119;50.118;8.642;2023-11-19T02:44:45;12.27;;;9.25;;
69047;SDS011;56119;50.118;8.642;2023-11-19T02:47:11;13.45;;;10.38;;
69047;SDS011;56119;50.118;8.642;2023-11-19T02:49:37;13.13;;;10.43;;
69047;SDS011;56119;50.118;8.642;2023-11-19T02:52:03;12.23;;;9.05;;
69047;SDS011;56119;50.118;8.642;2023-11-19T02:54:35;11.50;;;9.57;;
69047;SDS011;56119;50.118;8.642;2023-11-19T02:57:01;11.85;;;9.95;;
69047;SDS011;56119;50.118;8.642;2023-11-19T02:59:29;10.70;;;8.35;;
69047;SDS011;56119;50.118;8.642;2023-11-19T03:02:04;9.10;;;6.75;;
69047;SDS011;56119;50.118;8.642;2023-11-19T03:04:31;9.48;;;8.35;;
69047;SDS011;56119;50.118;8.642;2023-11-19T03:06:57;10.07;;;7.85;;
69047;SDS011;56119;50.118;8.642;2023-11-19T03:09:23;10.60;;;7.97;;
69047;SDS011;56119;50.118;8.642;2023-11-19T03:11:49;10.10;;;7.95;;
69047;SDS011;56119;50.118;8.642;2023-11-19T03:14:15;10.25;;;8.13;;
69047;SDS011;56119;50.118;8.642;2023-11-19T03:16:44;10.90;;;8.70;;
69047;SDS011;56119;50.118;8.642;2023-11-19T03:19:13;10.35;;;7.95;;
69047;SDS011;56119;50.118;8.642;2023-11-19T03:21:40;11.48;;;8.32;;
69047;SDS011;56119;50.118;8.642;2023-11-19T03:24:06;9.27;;;8.18;;
69047;SDS011;56119;50.118;8.642;2023-11-19T03:26:33;9.07;;;7.65;;
69047;SDS011;56119;50.118;8.642;2023-11-19T03:28:59;9.00;;;7.63;;
69047;SDS011;56119;50.118;8.642;2023-11-19T03:31:25;11.48;;;9.38;;
69047;SDS011;56119;50.118;8.642;2023-11-19T03:33:51;12.32;;;9.55;;
69047;SDS011;56119;50.118;8.642;2023-11-19T03:36:17;9.55;;;8.35;;
69047;SDS011;56119;50.118;8.642;2023-11-19T03:38:43;9.95;;;8.43;;
69047;SDS011;56119;50.118;8.642;2023-11-19T03:41:10;11.80;;;9.88;;
69047;SDS011;56119;50.118;8.642;2023-11-19T03:43:36;12.05;;;9.38;;
69047;SDS011;56119;50.118;8.642;2023-11-19T03:46:02;9.93;;;8.45;;
69047;SDS011;56119;50.118;8.642;2023-11-19T03:48:30;12.70;;;10.13;;
69047;SDS011;56119;50.118;8.642;2023-11-19T03:50:56;11.25;;;8.13;;
69047;SDS011;56119;50.118;8.642;2023-11-19T03:53:22;13.20;;;9.75;;
69047;SDS011;56119;50.118;8.642;2023-11-19T03:55:49;10.27;;;8.90;;
69047;SDS011;56119;50.118;8.642;2023-11-19T03:58:15;12.20;;;9.65;;
69047;SDS011;56119;50.118;8.642;2023-11-19T04:00:41;11.20;;;9.98;;
69047;SDS011;56119;50.118;8.642;2023-11-19T04:03:07;11.10;;;9.18;;
69047;SDS011;56119;50.118;8.642;2023-11-19T04:05:33;11.23;;;8.05;;
69047;SDS011;56119;50.118;8.642;2023-11-19T04:07:59;9.85;;;8.73;;
69047;SDS011;56119;50.118;8.642;2023-11-19T04:10:25;10.75;;;8.82;;
69047;SDS011;56119;50.118;8.642;2023-11-19T04:12:52;9.82;;;8.05;;
69047;SDS011;56119;50.118;8.642;2023-11-19T04:15:18;10.10;;;7.95;;
69047;SDS011;56119;50.118;8.642;2023-11-19T04:17:44;12.18;;;9.82;;
69047;SDS011;56119;50.118;8.642;2023-11-19T04:20:10;11.85;;;8.38;;
69047;SDS011;56119;50.118;8.642;2023-11-19T04:22:39;9.23;;;8.05;;
69047;SDS011;56119;50.118;8.642;2023-11-19T04:25:05;14.93;;;9.52;;
69047;SDS011;56119;50.118;8.642;2023-11-19T04:27:31;9.85;;;7.97;;
69047;SDS011;56119;50.118;8.642;2023-11-19T04:29:57;9.90;;;7.70;;
69047;SDS011;56119;50.118;8.642;2023-11-19T04:32:25;10.00;;;8.50;;
69047;SDS011;56119;50.118;8.642;2023-11-19T04:34:51;8.05;;;6.90;;
69047;SDS011;56119;50.118;8.642;2023-11-19T04:37:17;10.77;;;7.45;;
69047;SDS011;56119;50.118;8.642;2023-11-19T04:39:44;8.98;;;7.65;;
69047;SDS011;56119;50.118;8.642;2023-11-19T04:42:11;8.93;;;7.68;;
69047;SDS011;56119;50.118;8.642;2023-11-19T04:44:37;7.55;;;6.53;;
69047;SDS011;56119;50.118;8.642;2023-11-19T04:47:03;8.55;;;7.15;;
69047;SDS011;56119;50.118;8.642;2023-11-19T04:49:29;9.00;;;7.35;;
69047;SDS011;56119;50.118;8.642;2023-11-19T04:51:55;8.43;;;7.20;;
69047;SDS011;56119;50.118;8.642;2023-11-19T04:54:21;7.80;;;6.72;;
69047;SDS011;56119;50.118;8.642;2023-11-19T04:56:48;8.38;;;6.50;;
69047;SDS011;56119;50.118;8.642;2023-11-19T04:59:14;7.53;;;6.22;;
69047;SDS011;56119;50.118;8.642;2023-11-19T05:01:40;7.85;;;7.05;;
69047;SDS011;56119;50.118;8.642;2023-11-19T05:04:07;8.85;;;7.70;;
69047;SDS011;56119;50.118;8.642;2023-11-19T05:06:33;9.48;;;8.52;;
69047;SDS011;56119;50.118;8.642;2023-11-19T05:09:00;9.13;;;8.23;;
69047;SDS011;56119;50.118;8.642;2023-11-19T05:11:28;10.68;;;8.40;;
69047;SDS011;56119;50.118;8.642;2023-11-19T05:13:54;12.43;;;9.32;;
69047;SDS011;56119;50.118;8.642;2023-11-19T05:16:20;9.32;;;8.30;;
69047;SDS011;56119;50.118;8.642;2023-11-19T05:18:46;9.25;;;7.20;;
69047;SDS011;56119;50.118;8.642;2023-11-19T05:21:12;9.43;;;8.07;;
69047;SDS011;56119;50.118;8.642;2023-11-19T05:23:38;10.70;;;9.35;;
69047;SDS011;56119;50.118;8.642;2023-11-19T05:26:06;11.05;;;8.98;;
69047;SDS011;56119;50.118;8.642;2023-11-19T05:28:32;10.05;;;7.85;;
69047;SDS011;56119;50.118;8.642;2023-11-19T05:30:58;9.98;;;8.98;;
69047;SDS011;56119;50.118;8.642;2023-11-19T05:33:24;11.50;;;9.02;;
69047;SDS011;56119;50.118;8.642;2023-11-19T05:35:51;7.97;;;6.63;;
69047;SDS011;56119;50.118;8.642;2023-11-19T05:38:17;10.20;;;8.98;;
69047;SDS011;56119;50.118;8.642;2023-11-19T05:40:43;9.48;;;8.30;;
69047;SDS011;56119;50.118;8.642;2023-11-19T05:43:09;11.45;;;9.75;;
69047;SDS011;56119;50.118;8.642;2023-11-19T05:45:35;10.23;;;8.57;;
69047;SDS011;56119;50.118;8.642;2023-11-19T05:48:01;8.23;;;7.05;;
69047;SDS011;56119;50.118;8.642;2023-11-19T05:50:29;9.52;;;7.93;;
69047;SDS011;56119;50.118;8.642;2023-11-19T05:52:55;11.80;;;8.93;;
69047;SDS011;56119;50.118;8.642;2023-11-19T05:55:21;9.98;;;8.45;;
69047;SDS011;56119;50.118;8.642;2023-11-19T05:57:48;11.77;;;9.38;;
69047;SDS011;56119;50.118;8.642;2023-11-19T06:00:16;9.73;;;8.73;;
69047;SDS011;56119;50.118;8.642;2023-11-19T06:02:42;11.77;;;9.70;;
69047;SDS011;56119;50.118;8.642;2023-11-19T06:05:08;10.85;;;8.80;;
69047;SDS011;56119;50.118;8.642;2023-11-19T06:07:35;10.00;;;8.20;;
69047;SDS011;56119;50.118;8.642;2023-11-19T06:10:02;9.30;;;8.27;;
69047;SDS011;56119;50.118;8.642;2023-11-19T06:12:31;10.18;;;8.13;;
69047;SDS011;56119;50.118;8.642;2023-11-19T06:14:58;7.60;;;6.57;;
69047;SDS011;56119;50.118;8.642;2023-11-19T06:17:24;9.50;;;7.93;;
69047;SDS011;56119;50.118;8.642;2023-11-19T06:19:50;12.10;;;9.15;;
69047;SDS011;56119;50.118;8.642;2023-11-19T06:22:17;10.23;;;8.18;;
69047;SDS011;56119;50.118;8.642;2023-11-19T06:24:43;9.88;;;7.35;;
69047;SDS011;56119;50.118;8.642;2023-11-19T06:27:09;9.52;;;7.57;;
69047;SDS011;56119;50.118;8.642;2023-11-19T06:29:35;7.65;;;6.68;;
69047;SDS011;56119;50.118;8.642;2023-11-19T06:32:01;8.63;;;7.45;;
69047;SDS011;56119;50.118;8.642;2023-11-19T06:34:27;7.50;;;6.07;;
69047;SDS011;56119;50.118;8.642;2023-11-19T06:36:53;6.57;;;5.35;;
69047;SDS011;56119;50.118;8.642;2023-11-19T06:39:19;9.50;;;6.75;;
69047;SDS011;56119;50.118;8.642;2023-11-19T06:41:45;6.72;;;5.45;;
69047;SDS011;56119;50.118;8.642;2023-11-19T06:44:11;8.77;;;6.53;;
69047;SDS011;56119;50.118;8.642;2023-11-19T06:46:38;8.75;;;6.63;;
69047;SDS011;56119;50.118;8.642;2023-11-19T06:49:04;6.75;;;5.22;;
69047;SDS011;56119;50.118;8.642;2023-11-19T06:51:29;8.70;;;6.43;;
69047;SDS011;56119;50.118;8.642;2023-11-19T06:53:56;8.38;;;5.88;;
69047;SDS011;56119;50.118;8.642;2023-11-19T06:56:23;9.38;;;6.38;;
69047;SDS011;56119;50.118;8.642;2023-11-19T06:58:49;9.57;;;6.60;;
69047;SDS011;56119;50.118;8.642;2023-11-19T07:01:16;8.15;;;6.50;;
69047;SDS011;56119;50.118;8.642;2023-11-19T07:03:43;8.20;;;6.78;;
69047;SDS011;56119;50.118;8.642;2023-11-19T07:06:09;9.27;;;6.05;;
69047;SDS011;56119;50.118;8.642;2023-11-19T07:08:35;9.07;;;6.80;;
69047;SDS011;56119;50.118;8.642;2023-11-19T07:11:01;11.10;;;7.68;;
69047;SDS011;56119;50.118;8.642;2023-11-19T07:13:28;10.68;;;7.22;;
69047;SDS011;56119;50.118;8.642;2023-11-19T07:15:55;8.10;;;6.82;;
69047;SDS011;56119;50.118;8.642;2023-11-19T07:18:22;8.23;;;7.18;;
69047;SDS011;56119;50.118;8.642;2023-11-19T07:20:48;10.25;;;7.65;;
69047;SDS011;56119;50.118;8.642;2023-11-19T07:23:14;8.43;;;6.40;;
69047;SDS011;56119;50.118;8.642;2023-11-19T07:25:42;8.90;;;6.75;;
69047;SDS011;56119;50.118;8.642;2023-11-19T07:28:08;9.45;;;7.38;;
69047;SDS011;56119;50.118;8.642;2023-11-19T07:30:35;8.82;;;7.40;;
69047;SDS011;56119;50.118;8.642;2023-11-19T07:33:01;7.90;;;6.97;;
69047;SDS011;56119;50.118;8.642;2023-11-19T07:35:29;7.53;;;6.70;;
69047;SDS011;56119;50.118;8.642;2023-11-19T07:37:55;8.35;;;5.80;;
69047;SDS011;56119;50.118;8.642;2023-11-19T07:40:22;10.77;;;6.80;;
69047;SDS011;56119;50.118;8.642;2023-11-19T07:42:48;9.30;;;7.35;;
69047;SDS011;56119;50.118;8.642;2023-11-19T07:45:14;8.95;;;7.47;;
69047;SDS011;56119;50.118;8.642;2023-11-19T07:47:40;7.53;;;6.47;;
69047;SDS011;56119;50.118;8.642;2023-11-19T07:50:07;9.13;;;7.80;;
69047;SDS011;56119;50.118;8.642;2023-11-19T07:52:34;13.45;;;9.57;;
69047;SDS011;56119;50.118;8.642;2023-11-19T07:55:00;11.68;;;9.75;;
69047;SDS011;56119;50.118;8.642;2023-11-19T07:57:27;8.23;;;7.13;;
69047;SDS011;56119;50.118;8.642;2023-11-19T07:59:55;12.65;;;9.05;;
69047;SDS011;56119;50.118;8.642;2023-11-19T08:02:21;7.82;;;6.90;;
69047;SDS011;56119;50.118;8.642;2023-11-19T08:04:49;8.70;;;7.50;;
69047;SDS011;56119;50.118;8.642;2023-11-19T08:07:16;11.43;;;8.55;;
69047;SDS011;56119;50.118;8.642;2023-11-19T08:09:43;7.20;;;6.45;;
69047;SDS011;56119;50.118;8.642;2023-11-19T08:12:09;7.38;;;5.47;;
69047;SDS011;56119;50.118;8.642;2023-11-19T08:14:35;8.40;;;7.53;;
69047;SDS011;56119;50.118;8.642;2023-11-19T08:17:02;12.60;;;9.75;;
69047;SDS011;56119;50.118;8.642;2023-11-19T08:19:28;10.68;;;8.55;;
69047;SDS011;56119;50.118;8.642;2023-11-19T08:21:54;7.80;;;6.68;;
69047;SDS011;56119;50.118;8.642;2023-11-19T08:24:20;9.85;;;7.75;;
69047;SDS011;56119;50.118;8.642;2023-11-19T08:26:46;8.77;;;7.20;;
69047;SDS011;56119;50.118;8.642;2023-11-19T08:29:12;10.57;;;7.47;;
69047;SDS011;56119;50.118;8.642;2023-11-19T08:31:38;10.10;;;7.97;;
69047;SDS011;56119;50.118;8.642;2023-11-19T08:34:04;7.38;;;6.47;;
69047;SDS011;56119;50.118;8.642;2023-11-19T08:36:33;9.02;;;6.72;;
69047;SDS011;56119;50.118;8.642;2023-11-19T08:38:59;7.05;;;5.95;;
69047;SDS011;56119;50.118;8.642;2023-11-19T08:41:25;10.70;;;7.32;;
69047;SDS011;56119;50.118;8.642;2023-11-19T08:43:52;8.10;;;6.55;;
69047;SDS011;56119;50.118;8.642;2023-11-19T08:46:18;10.50;;;7.90;;
69047;SDS011;56119;50.118;8.642;2023-11-19T08:48:44;6.88;;;4.93;;
69047;SDS011;56119;50.118;8.642;2023-11-19T08:51:11;7.63;;;5.72;;
69047;SDS011;56119;50.118;8.642;2023-11-19T08:53:37;7.53;;;5.80;;
69047;SDS011;56119;50.118;8.642;2023-11-19T08:56:03;6.72;;;5.40;;
69047;SDS011;56119;50.118;8.642;2023-11-19T08:58:29;6.32;;;4.78;;
69047;SDS011;56119;50.118;8.642;2023-11-19T09:00:55;6.22;;;4.88;;
69047;SDS011;56119;50.118;8.642;2023-11-19T09:03:21;5.30;;;4.80;;
69047;SDS011;56119;50.118;8.642;2023-11-19T09:05:47;9.75;;;6.18;;
69047;SDS011;56119;50.118;8.642;2023-11-19T09:08:13;6.63;;;5.70;;
69047;SDS011;56119;50.118;8.642;2023-11-19T09:10:39;13.07;;;6.35;;
69047;SDS011;56119;50.118;8.642;2023-11-19T09:13:06;6.70;;;5.82;;
69047;SDS011;56119;50.118;8.642;2023-11-19T09:15:32;7.70;;;6.80;;
69047;SDS011;56119;50.118;8.642;2023-11-19T09:17:58;7.20;;;6.03;;
69047;SDS011;56119;50.118;8.642;2023-11-19T09:20:24;7.70;;;6.57;;
69047;SDS011;56119;50.118;8.642;2023-11-19T09:22:50;6.38;;;5.70;;
69047;SDS011;56119;50.118;8.642;2023-11-19T09:25:16;7.75;;;6.35;;
69047;SDS011;56119;50.118;8.642;2023-11-19T09:27:43;7.93;;;6.47;;
69047;SDS011;56119;50.118;8.642;2023-11-19T09:30:09;8.30;;;6.53;;
69047;SDS011;56119;50.118;8.642;2023-11-19T09:32:35;8.02;;;5.82;;
69047;SDS011;56119;50.118;8.642;2023-11-19T09:35:02;5.85;;;5.18;;
69047;SDS011;56119;50.118;8.642;2023-11-19T09:37:28;7.47;;;6.07;;
69047;SDS011;56119;50.118;8.642;2023-11-19T09:39:54;6.03;;;4.57;;
69047;SDS011;56119;50.118;8.642;2023-11-19T09:42:21;6.63;;;5.22;;
69047;SDS011;56119;50.118;8.642;2023-11-19T09:44:47;7.95;;;4.90;;
69047;SDS011;56119;50.118;8.642;2023-11-19T09:47:13;5.53;;;4.00;;
69047;SDS011;56119;50.118;8.642;2023-11-19T09:49:40;5.13;;;4.43;;
69047;SDS011;56119;50.118;8.642;2023-11-19T09:52:06;6.57;;;5.25;;
69047;SDS011;56119;50.118;8.642;2023-11-19T09:54:32;7.55;;;5.05;;
69047;SDS011;56119;50.118;8.642;2023-11-19T09:56:58;6.47;;;4.88;;
69047;SDS011;56119;50.118;8.642;2023-11-19T09:59:28;8.65;;;5.28;;
69047;SDS011;56119;50.118;8.642;2023-11-19T10:01:55;6.35;;;4.43;;
69047;SDS011;56119;50.118;8.642;2023-11-19T10:04:21;6.35;;;3.92;;
69047;SDS011;56119;50.118;8.642;2023-11-19T10:06:48;5.18;;;4.13;;
69047;SDS011;56119;50.118;8.642;2023-11-19T10:09:15;4.60;;;3.35;;
69047;SDS011;56119;50.118;8.642;2023-11-19T10:11:41;4.57;;;3.15;;
69047;SDS011;56119;50.118;8.642;2023-11-19T10:14:07;7.30;;;3.22;;
69047;SDS011;56119;50.118;8.642;2023-11-19T10:16:34;4.70;;;3.15;;
69047;SDS011;56119;50.118;8.642;2023-11-19T10:19:00;3.65;;;2.40;;
69047;SDS011;56119;50.118;8.642;2023-11-19T10:21:26;6.18;;;2.95;;
69047;SDS011;56119;50.118;8.642;2023-11-19T10:23:57;3.47;;;2.58;;
69047;SDS011;56119;50.118;8.642;2023-11-19T10:26:24;4.30;;;2.20;;
69047;SDS011;56119;50.118;8.642;2023-11-19T10:28:50;9.27;;;2.10;;
69047;SDS011;56119;50.118;8.642;2023-11-19T10:31:17;10.38;;;2.65;;
69047;SDS011;56119;50.118;8.642;2023-11-19T10:33:46;6.00;;;1.98;;
69047;SDS011;56119;50.118;8.642;2023-11-19T10:36:12;5.47;;;1.70;;
69047;SDS011;56119;50.118;8.642;2023-11-19T10:38:39;6.18;;;1.98;;
69047;SDS011;56119;50.118;8.642;2023-11-19T10:41:05;5.68;;;1.60;;
69047;SDS011;56119;50.118;8.642;2023-11-19T10:43:31;6.40;;;1.85;;
69047;SDS011;56119;50.118;8.642;2023-11-19T10:46:10;8.38;;;1.80;;
69047;SDS011;56119;50.118;8.642;2023-11-19T10:48:36;8.27;;;1.80;;
69047;SDS011;56119;50.118;8.642;2023-11-19T10:51:04;7.47;;;1.92;;
69047;SDS011;56119;50.118;8.642;2023-11-19T10:53:33;6.75;;;1.90;;
69047;SDS011;56119;50.118;8.642;2023-11-19T10:55:59;9.98;;;2.63;;
69047;SDS011;56119;50.118;8.642;2023-11-19T10:58:26;4.80;;;1.50;;
69047;SDS011;56119;50.118;8.642;2023-11-19T11:00:55;6.30;;;2.40;;
69047;SDS011;56119;50.118;8.642;2023-11-19T11:03:26;9.57;;;1.77;;
69047;SDS011;56119;50.118;8.642;2023-11-19T11:05:55;10.68;;;2.45;;
69047;SDS011;56119;50.118;8.642;2023-11-19T11:08:23;9.65;;;2.13;;
69047;SDS011;56119;50.118;8.642;2023-11-19T11:10:52;11.10;;;2.03;;
69047;SDS011;56119;50.118;8.642;2023-11-19T11:13:19;9.43;;;2.20;;
69047;SDS011;56119;50.118;8.642;2023-11-19T11:15:45;10.43;;;1.83;;
69047;SDS011;56119;50.118;8.642;2023-11-19T11:18:14;9.75;;;2.22;;
69047;SDS011;56119;50.118;8.642;2023-11-19T11:20:40;12.27;;;2.03;;
69047;SDS011;56119;50.118;8.642;2023-11-19T11:28:49;13.07;;;2.15;;
69047;SDS011;56119;50.118;8.642;2023-11-19T11:34:05;10.20;;;2.10;;
69047;SDS011;56119;50.118;8.642;2023-11-19T11:36:43;13.82;;;2.88;;
69047;SDS011;56119;50.118;8.642;2023-11-19T11:39:13;14.25;;;2.53;;
69047;SDS011;56119;50.118;8.642;2023-11-19T11:41:40;7.93;;;2.15;;
69047;SDS011;56119;50.118;8.642;2023-11-19T11:44:06;12.77;;;2.17;;
69047;SDS011;56119;50.118;8.642;2023-11-19T11:49:01;10.40;;;1.63;;
69047;SDS011;56119;50.118;8.642;2023-11-19T12:02:08;11.55;;;2.28;;
69047;SDS011;56119;50.118;8.642;2023-11-19T12:04:34;11.40;;;2.63;;
69047;SDS011;56119;50.118;8.642;2023-11-19T12:07:04;10.70;;;2.13;;
69047;SDS011;56119;50.118;8.642;2023-11-19T12:09:31;8.32;;;1.83;;
69047;SDS011;56119;50.118;8.642;2023-11-19T12:20:02;9.48;;;2.20;;
69047;SDS011;56119;50.118;8.642;2023-11-19T12:22:29;13.13;;;2.40;;
69047;SDS011;56119;50.118;8.642;2023-11-19T12:24:55;6.32;;;1.70;;
69047;SDS011;56119;50.118;8.642;2023-11-19T12:27:21;11.02;;;1.70;;
69047;SDS011;56119;50.118;8.642;2023-11-19T12:29:48;11.20;;;1.88;;
69047;SDS011;56119;50.118;8.642;2023-11-19T12:32:14;11.35;;;2.42;;
69047;SDS011;56119;50.118;8.642;2023-11-19T12:34:40;9.95;;;2.88;;
69047;SDS011;56119;50.118;8.642;2023-11-19T12:37:09;9.60;;;2.03;;
69047;SDS011;56119;50.118;8.642;2023-11-19T12:39:35;8.45;;;2.10;;
69047;SDS011;56119;50.118;8.642;2023-11-19T12:42:01;9.98;;;3.10;;
69047;SDS011;56119;50.118;8.642;2023-11-19T12:44:30;11.70;;;2.15;;
69047;SDS011;56119;50.118;8.642;2023-11-19T12:47:06;8.18;;;1.65;;
69047;SDS011;56119;50.118;8.642;2023-11-19T12:49:33;10.30;;;2.10;;
69047;SDS011;56119;50.118;8.642;2023-11-19T12:51:59;8.55;;;1.58;;
69047;SDS011;56119;50.118;8.642;2023-11-19T12:54:31;10.48;;;1.85;;
69047;SDS011;56119;50.118;8.642;2023-11-19T12:56:57;13.98;;;2.28;;
69047;SDS011;56119;50.118;8.642;2023-11-19T12:59:24;10.88;;;2.22;;
69047;SDS011;56119;50.118;8.642;2023-11-19T13:01:59;10.65;;;2.38;;
69047;SDS011;56119;50.118;8.642;2023-11-19T13:04:28;10.25;;;1.88;;
69047;SDS011;56119;50.118;8.642;2023-11-19T13:06:55;6.43;;;1.50;;
69047;SDS011;56119;50.118;8.642;2023-11-19T13:09:25;7.93;;;1.50;;
69047;SDS011;56119;50.118;8.642;2023-11-19T13:11:52;10.35;;;1.75;;
69047;SDS011;56119;50.118;8.642;2023-11-19T13:14:18;4.18;;;1.27;;
69047;SDS011;56119;50.118;8.642;2023-11-19T13:16:44;9.50;;;1.77;;
69047;SDS011;56119;50.118;8.642;2023-11-19T13:19:12;8.23;;;1.48;;
69047;SDS011;56119;50.118;8.642;2023-11-19T13:21:38;9.75;;;2.35;;
69047;SDS011;56119;50.118;8.642;2023-11-19T13:24:05;13.35;;;2.28;;
69047;SDS011;56119;50.118;8.642;2023-11-19T13:26:31;11.43;;;2.92;;
69047;SDS011;56119;50.118;8.642;2023-11-19T13:28:57;5.22;;;1.75;;
69047;SDS011;56119;50.118;8.642;2023-11-19T13:31:23;8.70;;;2.03;;
69047;SDS011;56119;50.118;8.642;2023-11-19T13:33:49;8.25;;;1.48;;
69047;SDS011;56119;50.118;8.642;2023-11-19T13:36:15;8.93;;;1.50;;
69047;SDS011;56119;50.118;8.642;2023-11-19T13:38:41;6.38;;;1.48;;
69047;SDS011;56119;50.118;8.642;2023-11-19T13:41:09;10.50;;;2.03;;
69047;SDS011;56119;50.118;8.642;2023-11-19T13:43:36;9.45;;;2.20;;
69047;SDS011;56119;50.118;8.642;2023-11-19T13:46:02;4.38;;;1.65;;
69047;SDS011;56119;50.118;8.642;2023-11-19T13:48:29;9.90;;;2.20;;
69047;SDS011;56119;50.118;8.642;2023-11-19T13:50:55;10.40;;;2.13;;
69047;SDS011;56119;50.118;8.642;2023-11-19T13:53:21;10.75;;;2.17;;
69047;SDS011;56119;50.118;8.642;2023-11-19T13:55:48;9.30;;;2.03;;
69047;SDS011;56119;50.118;8.642;2023-11-19T13:58:15;10.05;;;1.85;;
69047;SDS011;56119;50.118;8.642;2023-11-19T14:00:41;7.32;;;1.55;;
69047;SDS011;56119;50.118;8.642;2023-11-19T14:03:08;8.57;;;1.50;;
69047;SDS011;56119;50.118;8.642;2023-11-19T14:05:36;9.30;;;2.05;;
69047;SDS011;56119;50.118;8.642;2023-11-19T14:08:01;11.27;;;1.95;;
69047;SDS011;56119;50.118;8.642;2023-11-19T14:10:28;7.90;;;1.67;;
69047;SDS011;56119;50.118;8.642;2023-11-19T14:12:54;9.07;;;2.00;;
69047;SDS011;56119;50.118;8.642;2023-11-19T14:15:20;6.85;;;1.42;;
69047;SDS011;56119;50.118;8.642;2023-11-19T14:17:46;8.27;;;1.60;;
69047;SDS011;56119;50.118;8.642;2023-11-19T14:20:12;9.73;;;2.20;;
69047;SDS011;56119;50.118;8.642;2023-11-19T14:22:47;8.80;;;1.75;;
69047;SDS011;56119;50.118;8.642;2023-11-19T14:25:14;9.45;;;1.83;;
69047;SDS011;56119;50.118;8.642;2023-11-19T14:27:41;8.77;;;2.10;;
69047;SDS011;56119;50.118;8.642;2023-11-19T14:30:10;6.82;;;1.52;;
69047;SDS011;56119;50.118;8.642;2023-11-19T14:32:38;10.18;;;1.70;;
69047;SDS011;56119;50.118;8.642;2023-11-19T14:35:05;6.93;;;2.17;;
69047;SDS011;56119;50.118;8.642;2023-11-19T14:37:31;7.60;;;1.83;;
69047;SDS011;56119;50.118;8.642;2023-11-19T14:39:57;7.85;;;2.00;;
69047;SDS011;56119;50.118;8.642;2023-11-19T14:42:24;7.55;;;2.05;;
69047;SDS011;56119;50.118;8.642;2023-11-19T14:44:53;7.00;;;1.65;;
69047;SDS011;56119;50.118;8.642;2023-11-19T14:47:20;7.35;;;1.50;;
69047;SDS011;56119;50.118;8.642;2023-11-19T14:49:46;7.53;;;1.88;;
69047;SDS011;56119;50.118;8.642;2023-11-19T14:52:12;9.25;;;1.80;;
69047;SDS011;56119;50.118;8.642;2023-11-19T14:54:38;8.77;;;2.05;;
69047;SDS011;56119;50.118;8.642;2023-11-19T14:57:05;14.20;;;2.28;;
69047;SDS011;56119;50.118;8.642;2023-11-19T14:59:33;6.63;;;1.90;;
69047;SDS011;56119;50.118;8.642;2023-11-19T15:01:59;9.95;;;2.13;;
69047;SDS011;56119;50.118;8.642;2023-11-19T15:04:25;11.40;;;2.13;;
69047;SDS011;56119;50.118;8.642;2023-11-19T15:06:51;8.80;;;2.10;;